North Platte Regional Airport Lee Bird Field
KLBF : now visible

Airfield :











YOU CAN JOIN US ON...

 
LOGIN :

Register | Disclaimer

   EN    FR    IT 

 









Legend :    VFR   Marginal VFR   IFR   Intensive IFR   Very Intensive IFR
Visi :
Ceiling :
>= 8 km
>= 3000ft
5 to 8 km
1000 to 3000 ft
1500m to 5 km
500 to 1000 ft
800 to 1500m
200 to 500 ft
< 800m
< 200 ft
Symbols :   Thunderstorms  Fog  Heavy snow  Heavy precipitations  Wind > 20 kt






- Airport Elevation : 2777 ft
- IATA code : LBF


KLBF - North Platte Regional Lee Bird Field

CURRENT METAR :
  • 141353Z AUTO 33005KT 10SM CLR M06/M07 A3032 RMK AO2 SLP296 I1000 T10561067

EXPIRED METARs :
  • 141253Z AUTO 33004KT 10SM CLR M06/M07 A3030 RMK AO2 SLP291 I1000 T10561067
  • 141153Z AUTO 34003KT 10SM CLR M06/M07 A3029 RMK AO2 SLP283 I1001 I6001 T10611067 10000 21061 53009
  • 141115Z AUTO 34005KT 3SM BR CLR M06/M07 A3028 RMK AO2 I1000 T10611072

TAF KLBF
Valid from the 14 at 13:00 until the 15 at 12:00 UTC


141232Z 1413/1512 VRB04KT P6SM FEW250
FM141700 28005KT P6SM FEW250
FM150300 17004KT P6SM SKC



MET'MAP, your aeronautical weather chart ! - Copyright ORBIFLY December 2007 - Disclaimer

ORBIFLY MET'MAP TEAM :

Programming & Development : Alexandra Zaïnal
Concept & Development : Baudouin d'Aumeries
Co-Development & Prog : Marc-Olivier Méhu
Technical & hardware support : Manuel Goepfert

Contact : metmap@orbifly.com




SOURCES & CREDITS :

   NOAA       Earth
Advisory